メインページ
METAR-TAF:

METAR-TAF

空港 :

ハーツフィールド・ジャクソン・アトランタ国際空港

アトランタ, ジョージア州, アメリカ合衆国

緯度: 33-38-25N, 経度: 084-25-37W, 海抜: 313m

現時点の気象観測

当レポートは25分前の10:52(UTC)に作成
北東の風 4kt
気温 7°C
湿度 93%
気圧 1023 hPa
視程: 0.4km
高度300ftの曇り
小雨, 靄

METAR: KATL 141052Z 04004KT 1/4SM R09R/P6000FT -RA BR OVC003 07/06 A3022 RMK AO2 SFC VIS 2 1/2 RAB0957E10B27 SLP236 TWRINC P0000 T00720061

時間: 06:17 (11:17 UTC)

予報

当レポートは1時間7分前の10:10(UTC)に作成
予報は14日の 10時(UTC)から 15日の 12時(UTC)まで有効
北/北東の風 6kt
視程: 8.0km
高度400ftの曇り
小雨
14日の 1100時(UTC)から
北東の風 8kt
視程: 6.4km
高度400ftの曇り
小雨, 靄
14日の 1600時(UTC)から
東/北東の風 11kt、最大19ktの突風を伴う
視程: 3.2km
高度700ftの曇り
雨, 靄
15日の 0000時(UTC)から
の風 12kt、最大21ktの突風を伴う
視程: 4.8km
高度700ftの曇り
小雨, 靄
15日の 0600時(UTC)から
東/北東の風 10kt
視程: 4.8km
高度500ftの曇り

TAF: KATL 141010Z 1410/1512 03006KT 5SM -RA OVC004 FM141100 04008KT 4SM -RA BR OVC004 FM141600 07011G19KT 2SM RA BR OVC007 FM150000 09012G21KT 3SM -RA BR OVC007 FM150600 07010KT 3SM BR OVC005

4,000以上の空港の気象観測と天気予報(METAR報とTAF報)

利用可能な観測所は地図上に黄色い丸と赤い丸で示す。

丸の上にカーソルを重ねると観測所名を参照できる。

次にクリックすると気象観測と天気予報を参照できる。

マップの切り替え:黒色「×」印の緑ボタンをクリックして拡大、「-」印の緑ボタンをクリックして縮小、緑色の三角印をクリックして隣りの地図に切り替え


METAR-TAF: